createdAt,value
2019-02-14T00:01:05.785Z,7.40
2019-02-14T00:03:07.541Z,7.50
2019-02-14T00:05:16.250Z,7.50
2019-02-14T00:07:13.917Z,7.50
2019-02-14T00:09:15.693Z,7.50
2019-02-14T00:11:17.490Z,7.40
2019-02-14T00:13:19.229Z,7.40
2019-02-14T00:15:21.353Z,7.40
2019-02-14T00:17:23.209Z,7.40
2019-02-14T00:19:25.070Z,7.40
2019-02-14T00:21:26.820Z,7.40
2019-02-14T00:23:28.566Z,7.40
2019-02-14T00:25:30.330Z,7.40
2019-02-14T00:27:32.133Z,7.40
2019-02-14T00:29:33.846Z,7.40
2019-02-14T00:31:35.890Z,7.40
2019-02-14T00:33:37.665Z,7.40
2019-02-14T00:35:39.895Z,7.40
2019-02-14T00:37:41.664Z,7.30
2019-02-14T00:39:43.396Z,7.40
2019-02-14T00:41:45.121Z,7.40
2019-02-14T00:43:46.876Z,7.30
2019-02-14T00:45:48.610Z,7.30
2019-02-14T00:47:50.324Z,7.30
2019-02-14T00:49:52.077Z,7.30
2019-02-14T00:51:54.594Z,7.30
2019-02-14T00:53:56.341Z,7.30
2019-02-14T00:55:58.435Z,7.30
2019-02-14T00:58:00.177Z,7.30
2019-02-14T01:00:02.161Z,7.30
2019-02-14T01:02:04.206Z,7.30
2019-02-14T01:04:06.098Z,7.30
2019-02-14T01:06:07.824Z,7.30
2019-02-14T01:08:09.694Z,7.30
2019-02-14T01:10:11.639Z,7.30
2019-02-14T01:12:13.619Z,7.30
2019-02-14T01:14:15.496Z,7.20
2019-02-14T01:16:17.257Z,7.20
2019-02-14T01:18:19.092Z,7.30
2019-02-14T01:20:20.847Z,7.20
2019-02-14T01:22:22.699Z,7.20
2019-02-14T01:24:24.572Z,7.20
2019-02-14T01:26:26.405Z,7.30
2019-02-14T01:28:28.144Z,7.30
2019-02-14T01:30:30.098Z,7.20
2019-02-14T01:32:31.958Z,7.30
2019-02-14T01:34:33.697Z,7.30
2019-02-14T01:36:35.462Z,7.20
2019-02-14T01:38:37.201Z,7.20
2019-02-14T01:40:38.929Z,7.20
2019-02-14T01:42:40.732Z,7.20
2019-02-14T01:44:42.495Z,7.20
2019-02-14T01:46:44.213Z,7.10
2019-02-14T01:48:45.944Z,7.10
2019-02-14T01:50:47.656Z,7.10
2019-02-14T01:52:49.428Z,7.10
2019-02-14T01:54:51.169Z,7.10
2019-02-14T01:56:53.062Z,7.00
2019-02-14T01:58:54.830Z,7.00
2019-02-14T02:00:56.859Z,6.90
2019-02-14T02:02:58.621Z,7.00
2019-02-14T02:05:00.456Z,6.90
2019-02-14T02:07:02.233Z,6.90
2019-02-14T02:09:06.251Z,6.90
2019-02-14T02:11:08.443Z,6.90
2019-02-14T02:13:10.298Z,6.90
2019-02-14T02:15:12.823Z,6.90
2019-02-14T02:17:14.612Z,6.90
2019-02-14T02:19:16.541Z,6.90
2019-02-14T02:21:18.315Z,6.90
2019-02-14T02:23:20.129Z,6.90
2019-02-14T02:25:21.896Z,6.90
2019-02-14T02:27:23.665Z,6.90
2019-02-14T02:29:25.421Z,6.80
2019-02-14T02:31:27.269Z,6.80
2019-02-14T02:33:28.993Z,6.70
2019-02-14T02:35:30.725Z,6.80
2019-02-14T02:37:32.890Z,6.80
2019-02-14T02:39:34.608Z,6.80
2019-02-14T02:41:36.326Z,6.80
2019-02-14T02:43:38.038Z,6.70
2019-02-14T02:45:39.841Z,6.80
2019-02-14T02:47:41.741Z,6.80
2019-02-14T02:49:43.444Z,6.70
2019-02-14T02:51:45.210Z,6.70
2019-02-14T02:53:47.034Z,6.70
2019-02-14T02:55:48.873Z,6.80
2019-02-14T02:57:50.595Z,6.80
2019-02-14T02:59:52.568Z,6.80
2019-02-14T03:01:54.282Z,6.70
2019-02-14T03:03:56.003Z,6.70
2019-02-14T03:05:57.747Z,6.70
2019-02-14T03:07:59.454Z,6.70
2019-02-14T03:10:01.273Z,6.60
2019-02-14T03:12:03.473Z,6.70
2019-02-14T03:14:05.178Z,6.80
2019-02-14T03:16:06.906Z,6.70
2019-02-14T03:18:08.629Z,6.70
2019-02-14T03:20:10.897Z,6.70
2019-02-14T03:22:12.604Z,6.70
2019-02-14T03:24:14.346Z,6.70
2019-02-14T03:26:16.054Z,6.70
2019-02-14T03:28:17.857Z,6.60
2019-02-14T03:30:19.576Z,6.60
2019-02-14T03:32:21.411Z,6.60
2019-02-14T03:34:23.120Z,6.60
2019-02-14T03:36:24.824Z,6.60
2019-02-14T03:38:26.573Z,6.60
2019-02-14T03:40:28.277Z,6.60
2019-02-14T03:42:29.977Z,6.60
2019-02-14T03:44:31.804Z,6.60
2019-02-14T03:46:33.509Z,6.60
2019-02-14T03:48:35.229Z,6.60
2019-02-14T03:50:36.958Z,6.60
2019-02-14T03:52:38.976Z,6.60
2019-02-14T03:54:40.678Z,6.60
2019-02-14T03:56:42.386Z,6.50
2019-02-14T03:58:44.100Z,6.60
2019-02-14T04:00:45.827Z,6.60
2019-02-14T04:02:47.591Z,6.50
2019-02-14T04:04:49.309Z,6.50
2019-02-14T04:06:51.029Z,6.50
2019-02-14T04:08:52.733Z,6.50
2019-02-14T04:10:54.761Z,6.60
2019-02-14T04:12:56.457Z,6.60
2019-02-14T04:14:58.162Z,6.50
2019-02-14T04:16:59.901Z,6.50
2019-02-14T04:19:01.613Z,6.50
2019-02-14T04:21:03.341Z,6.50
2019-02-14T04:23:05.153Z,6.50
2019-02-14T04:25:07.219Z,6.50
2019-02-14T04:27:08.933Z,6.50
2019-02-14T04:29:10.758Z,6.60
2019-02-14T04:31:12.468Z,6.60
2019-02-14T04:33:14.192Z,6.50
2019-02-14T04:35:15.904Z,6.50
2019-02-14T04:37:17.633Z,6.50
2019-02-14T04:39:19.345Z,6.50
2019-02-14T04:41:21.073Z,6.40
2019-02-14T04:43:22.769Z,6.50
2019-02-14T04:45:24.469Z,6.50
2019-02-14T04:47:26.202Z,6.50
2019-02-14T04:49:27.910Z,6.50
2019-02-14T04:51:29.620Z,6.60
2019-02-14T04:53:31.514Z,6.60
2019-02-14T04:55:33.218Z,6.60
2019-02-14T04:57:34.927Z,6.60
2019-02-14T04:59:36.796Z,6.60
2019-02-14T05:01:38.521Z,6.50
2019-02-14T05:03:40.225Z,6.60
2019-02-14T05:05:42.080Z,6.70
2019-02-14T05:07:43.892Z,6.60
2019-02-14T05:09:45.599Z,6.50
2019-02-14T05:11:47.554Z,6.50
2019-02-14T05:13:49.263Z,6.40
2019-02-14T05:15:51.116Z,6.40
2019-02-14T05:17:52.836Z,6.40
2019-02-14T05:19:54.544Z,6.40
2019-02-14T05:21:56.371Z,6.40
2019-02-14T05:23:59.037Z,6.50
2019-02-14T05:26:00.748Z,6.50
2019-02-14T05:28:02.788Z,6.40
2019-02-14T05:30:05.593Z,6.50
2019-02-14T05:32:07.397Z,6.50
2019-02-14T05:34:09.134Z,6.40
2019-02-14T05:36:10.860Z,6.40
2019-02-14T05:38:12.561Z,6.50
2019-02-14T05:40:14.277Z,6.40
2019-02-14T05:42:15.996Z,6.40
2019-02-14T05:44:17.726Z,6.50
2019-02-14T05:46:19.437Z,6.50
2019-02-14T05:48:21.155Z,6.50
2019-02-14T05:50:22.893Z,6.50
2019-02-14T05:52:24.605Z,6.60
2019-02-14T05:54:26.304Z,6.70
2019-02-14T05:56:28.057Z,6.60
2019-02-14T05:58:29.771Z,6.50
2019-02-14T06:00:31.481Z,6.50
2019-02-14T06:02:33.230Z,6.50
2019-02-14T06:04:34.942Z,6.40
2019-02-14T06:06:36.641Z,6.40
2019-02-14T06:08:38.629Z,6.50
2019-02-14T06:10:40.352Z,6.50
2019-02-14T06:12:42.174Z,6.50
2019-02-14T06:14:43.886Z,6.50
2019-02-14T06:16:45.636Z,6.50
2019-02-14T06:18:47.348Z,6.40
2019-02-14T06:20:49.073Z,6.50
2019-02-14T06:22:50.797Z,6.50
2019-02-14T06:24:52.639Z,6.40
2019-02-14T06:26:54.344Z,6.40
2019-02-14T06:28:56.374Z,6.40
2019-02-14T06:30:58.088Z,6.40
2019-02-14T06:32:59.793Z,6.40
2019-02-14T06:35:01.560Z,6.40
2019-02-14T06:37:09.463Z,6.40
2019-02-14T06:39:06.953Z,6.50
2019-02-14T06:41:11.466Z,6.40
2019-02-14T06:43:13.210Z,6.40
2019-02-14T06:45:14.949Z,6.40
2019-02-14T06:47:16.669Z,6.40
2019-02-14T06:49:18.388Z,6.40
2019-02-14T06:51:20.102Z,6.40
2019-02-14T06:53:22.126Z,6.30
2019-02-14T06:55:23.848Z,6.40
2019-02-14T06:57:25.561Z,6.40
2019-02-14T06:59:27.401Z,6.40
2019-02-14T07:01:29.105Z,6.30
2019-02-14T07:03:30.813Z,6.30
2019-02-14T07:05:32.544Z,6.40
2019-02-14T07:07:34.255Z,6.40
2019-02-14T07:09:36.056Z,6.50
2019-02-14T07:11:37.954Z,6.40
2019-02-14T07:13:39.657Z,6.50
2019-02-14T07:15:41.361Z,6.50
2019-02-14T07:17:43.089Z,6.50
2019-02-14T07:19:44.817Z,6.50
2019-02-14T07:21:46.517Z,6.40
2019-02-14T07:23:48.233Z,6.40
2019-02-14T07:25:49.950Z,6.30
2019-02-14T07:27:51.656Z,6.30
2019-02-14T07:29:53.409Z,6.40
2019-02-14T07:31:55.124Z,6.40
2019-02-14T07:33:56.844Z,6.50
2019-02-14T07:35:58.567Z,6.50
2019-02-14T07:38:00.270Z,6.50
2019-02-14T07:40:02.073Z,6.50
2019-02-14T07:42:03.801Z,6.50
2019-02-14T07:44:05.525Z,6.50
2019-02-14T07:46:07.351Z,6.40
2019-02-14T07:48:09.381Z,6.50
2019-02-14T07:50:11.290Z,6.60
2019-02-14T07:52:12.998Z,6.60
2019-02-14T07:54:14.713Z,6.60
2019-02-14T07:56:16.429Z,6.50
2019-02-14T07:58:18.134Z,6.60
2019-02-14T08:00:19.969Z,6.60
2019-02-14T08:02:21.685Z,6.60
2019-02-14T08:04:23.384Z,6.60
2019-02-14T08:06:25.161Z,6.70
2019-02-14T08:08:26.951Z,6.70
2019-02-14T08:10:28.657Z,6.70
2019-02-14T08:12:30.492Z,6.70
2019-02-14T08:14:32.207Z,6.70
2019-02-14T08:16:33.925Z,6.70
2019-02-14T08:18:35.734Z,6.60
2019-02-14T08:20:37.437Z,6.70
2019-02-14T08:22:39.140Z,6.70
2019-02-14T08:24:41.048Z,6.60
2019-02-14T08:26:42.779Z,6.50
2019-02-14T08:28:44.530Z,6.50
2019-02-14T08:30:46.433Z,6.50
2019-02-14T08:32:48.154Z,6.60
2019-02-14T08:34:50.046Z,6.50
2019-02-14T08:36:51.753Z,6.50
2019-02-14T08:38:53.458Z,6.60
2019-02-14T08:40:55.426Z,6.60
2019-02-14T08:42:58.663Z,6.60
2019-02-14T08:45:00.693Z,6.60
2019-02-14T08:47:02.903Z,6.50
2019-02-14T08:49:04.611Z,6.50
2019-02-14T08:51:06.322Z,6.60
2019-02-14T08:53:08.068Z,6.70
2019-02-14T08:55:10.278Z,6.70
2019-02-14T08:57:12.477Z,6.70
2019-02-14T08:59:14.306Z,6.70
2019-02-14T09:01:16.017Z,6.70
2019-02-14T09:03:17.721Z,6.80
2019-02-14T09:05:19.471Z,6.80
2019-02-14T09:07:21.226Z,6.90
2019-02-14T09:09:22.940Z,6.90
2019-02-14T09:11:24.662Z,6.90
2019-02-14T09:13:26.386Z,6.80
2019-02-14T09:15:28.104Z,6.80
2019-02-14T09:17:29.854Z,6.90
2019-02-14T09:19:31.554Z,6.90
2019-02-14T09:21:33.261Z,6.90
2019-02-14T09:23:34.972Z,6.90
2019-02-14T09:25:36.762Z,7.20
2019-02-14T09:27:38.578Z,7.30
2019-02-14T09:29:40.305Z,7.40
2019-02-14T09:31:42.253Z,7.60
2019-02-14T09:33:43.966Z,7.80
2019-02-14T09:35:45.678Z,8.00
2019-02-14T09:37:47.406Z,7.90
2019-02-14T09:39:49.114Z,7.90
2019-02-14T09:41:50.861Z,8.00
2019-02-14T09:43:52.840Z,8.20
2019-02-14T09:45:54.554Z,8.40
2019-02-14T09:47:56.278Z,8.50
2019-02-14T09:49:57.996Z,8.50
2019-02-14T09:51:59.809Z,8.70
2019-02-14T09:54:01.550Z,8.60
2019-02-14T09:56:03.374Z,8.60
2019-02-14T09:58:05.078Z,8.60
2019-02-14T10:00:09.887Z,8.70
2019-02-14T10:02:11.685Z,8.90
2019-02-14T10:04:13.434Z,9.00
2019-02-14T10:06:15.240Z,9.00
2019-02-14T10:08:16.965Z,9.30
2019-02-14T10:10:18.732Z,9.40
2019-02-14T10:12:20.505Z,9.40
2019-02-14T10:14:22.345Z,9.60
2019-02-14T10:16:24.090Z,9.80
2019-02-14T10:18:25.808Z,9.80
2019-02-14T10:20:27.795Z,9.80
2019-02-14T10:22:29.589Z,10.00
2019-02-14T10:24:31.501Z,10.00
2019-02-14T10:26:33.229Z,9.90
2019-02-14T10:28:35.084Z,9.90
2019-02-14T10:30:36.909Z,10.00
2019-02-14T10:32:38.701Z,10.10
2019-02-14T10:34:40.539Z,10.20
2019-02-14T10:36:42.249Z,10.80
2019-02-14T10:38:45.298Z,11.00
2019-02-14T10:40:47.285Z,11.00
2019-02-14T10:42:49.142Z,10.80
2019-02-14T10:44:51.053Z,10.60
2019-02-14T10:46:52.809Z,10.50
2019-02-14T10:48:54.518Z,10.70
2019-02-14T10:50:56.322Z,10.90
2019-02-14T10:52:58.164Z,11.10
2019-02-14T10:54:59.997Z,11.40
2019-02-14T10:57:01.707Z,11.60
2019-02-14T10:59:03.558Z,11.40
2019-02-14T11:01:05.786Z,11.30
2019-02-14T11:03:07.608Z,11.30
2019-02-14T11:05:09.859Z,11.30
2019-02-14T11:07:13.540Z,11.50
2019-02-14T11:09:15.281Z,11.70
2019-02-14T11:11:17.097Z,12.10
2019-02-14T11:13:18.821Z,12.10
2019-02-14T11:15:20.785Z,12.40
2019-02-14T11:17:22.618Z,12.50
2019-02-14T11:19:24.363Z,12.30
2019-02-14T11:21:26.081Z,12.20
2019-02-14T11:23:27.921Z,11.90
2019-02-14T11:25:31.098Z,11.80
2019-02-14T11:27:32.801Z,12.00
2019-02-14T11:29:34.539Z,12.20
2019-02-14T11:31:36.237Z,12.50
2019-02-14T11:33:37.941Z,12.70
2019-02-14T11:35:39.675Z,12.80
2019-02-14T11:37:41.393Z,13.10
2019-02-14T11:39:43.092Z,13.00
2019-02-14T11:41:44.839Z,13.20
2019-02-14T11:43:46.562Z,13.30
2019-02-14T11:45:50.240Z,13.70
2019-02-14T11:47:51.965Z,13.70
2019-02-14T11:49:53.665Z,13.70
2019-02-14T11:51:55.381Z,13.50
2019-02-14T11:53:57.188Z,13.20
2019-02-14T11:55:59.141Z,13.50
2019-02-14T11:58:00.857Z,13.70
2019-02-14T12:00:03.890Z,14.10
2019-02-14T12:02:05.651Z,14.30
2019-02-14T12:04:07.466Z,14.90
2019-02-14T12:06:09.186Z,14.90
2019-02-14T12:08:10.895Z,15.00
2019-02-14T12:10:13.978Z,15.40
2019-02-14T12:12:15.794Z,15.30
2019-02-14T12:14:17.554Z,15.30
2019-02-14T12:16:19.319Z,14.80
2019-02-14T12:18:21.133Z,15.10
2019-02-14T12:20:22.843Z,15.40
2019-02-14T12:22:24.634Z,15.60
2019-02-14T12:24:26.377Z,15.90
2019-02-14T12:26:28.088Z,16.40
2019-02-14T12:28:29.787Z,16.80
2019-02-14T12:30:31.624Z,16.70
2019-02-14T12:32:33.366Z,16.20
2019-02-14T12:34:35.076Z,16.10
2019-02-14T12:36:36.850Z,16.00
2019-02-14T12:38:38.566Z,16.10
2019-02-14T12:40:40.272Z,16.60
2019-02-14T12:42:42.010Z,17.00
2019-02-14T12:44:43.804Z,16.80
2019-02-14T12:46:45.498Z,16.80
2019-02-14T12:48:47.209Z,17.50
2019-02-14T12:50:48.969Z,18.40
2019-02-14T12:52:50.762Z,17.80
2019-02-14T12:54:52.491Z,17.00
2019-02-14T12:56:54.208Z,17.00
2019-02-14T12:58:55.940Z,17.30
2019-02-14T13:00:57.650Z,18.10
2019-02-14T13:02:59.361Z,17.90
2019-02-14T13:05:01.050Z,17.40
2019-02-14T13:07:03.473Z,18.00
2019-02-14T13:09:06.237Z,17.90
2019-02-14T13:11:07.956Z,17.40
2019-02-14T13:13:09.754Z,17.40
2019-02-14T13:15:13.745Z,17.70
2019-02-14T13:17:15.476Z,18.10
2019-02-14T13:19:17.261Z,19.20
2019-02-14T13:21:18.969Z,19.00
2019-02-14T13:23:20.715Z,18.70
2019-02-14T13:25:22.515Z,18.20
2019-02-14T13:27:24.233Z,18.20
2019-02-14T13:29:25.948Z,19.10
2019-02-14T13:31:32.116Z,19.70
2019-02-14T13:33:31.401Z,19.90
2019-02-14T13:35:33.115Z,19.60
2019-02-14T13:37:34.917Z,19.80
2019-02-14T13:39:36.728Z,19.20
2019-02-14T13:41:38.434Z,19.20
2019-02-14T13:43:40.130Z,19.80
2019-02-14T13:45:41.845Z,19.40
2019-02-14T13:47:43.574Z,19.30
2019-02-14T13:49:45.284Z,19.30
2019-02-14T13:51:47.184Z,18.90
2019-02-14T13:53:48.905Z,19.30
2019-02-14T13:55:50.605Z,19.10
2019-02-14T13:57:52.482Z,18.00
2019-02-14T13:59:54.189Z,17.90
2019-02-14T14:01:55.889Z,17.90
2019-02-14T14:03:57.625Z,17.70
2019-02-14T14:05:59.333Z,18.20
2019-02-14T14:08:01.033Z,18.60
2019-02-14T14:10:03.345Z,18.60
2019-02-14T14:12:05.044Z,18.40
2019-02-14T14:14:06.851Z,18.80
2019-02-14T14:16:08.565Z,18.70
2019-02-14T14:18:10.277Z,18.20
2019-02-14T14:20:12.077Z,17.90
2019-02-14T14:22:13.814Z,18.30
2019-02-14T14:24:15.549Z,18.40
2019-02-14T14:26:17.265Z,18.20
2019-02-14T14:28:18.961Z,17.80
2019-02-14T14:30:20.669Z,17.70
2019-02-14T14:34:38.625Z,18.00
2019-02-14T14:36:40.342Z,17.80
2019-02-14T14:38:42.176Z,18.00
2019-02-14T14:40:44.213Z,18.50
2019-02-14T14:43:05.615Z,18.60
2019-02-14T14:45:09.337Z,18.00
2019-02-14T14:47:16.236Z,17.60
2019-02-14T14:49:17.990Z,17.60
2019-02-14T14:51:19.724Z,17.60
2019-02-14T14:53:21.437Z,17.40
2019-02-14T14:55:23.172Z,17.60
2019-02-14T14:57:24.938Z,18.30
2019-02-14T14:59:26.700Z,19.10
2019-02-14T15:01:28.553Z,19.30
2019-02-14T15:03:30.375Z,18.80
2019-02-14T15:05:32.126Z,18.70
2019-02-14T15:07:33.877Z,18.30
2019-02-14T15:09:35.669Z,17.80
2019-02-14T15:11:37.408Z,17.60
2019-02-14T15:13:39.129Z,17.80
2019-02-14T15:15:40.869Z,17.80
2019-02-14T15:17:44.641Z,18.10
2019-02-14T15:19:46.370Z,17.90
2019-02-14T15:21:48.257Z,17.90
2019-02-14T15:23:50.114Z,17.90
2019-02-14T15:25:51.857Z,18.00
2019-02-14T15:27:53.641Z,17.90
2019-02-14T15:29:55.599Z,17.80
2019-02-14T15:31:57.336Z,17.50
2019-02-14T15:33:59.247Z,17.30
2019-02-14T15:36:01.099Z,17.40
2019-02-14T15:38:02.845Z,17.70
2019-02-14T15:40:09.376Z,17.80
2019-02-14T15:42:08.365Z,17.50
2019-02-14T15:44:10.108Z,16.90
2019-02-14T15:46:11.897Z,16.70
2019-02-14T15:48:13.625Z,16.40
2019-02-14T15:50:15.491Z,16.00
2019-02-14T15:52:17.240Z,15.50
2019-02-14T15:54:18.987Z,15.20
2019-02-14T15:56:20.902Z,15.00
2019-02-14T15:58:22.820Z,14.80
2019-02-14T16:00:24.668Z,14.50
2019-02-14T16:02:28.439Z,14.10
2019-02-14T16:04:31.362Z,13.90
2019-02-14T16:06:33.260Z,14.00
2019-02-14T16:08:35.030Z,13.90
2019-02-14T16:10:36.777Z,13.80
2019-02-14T16:12:38.668Z,13.60
2019-02-14T16:14:41.063Z,13.40
2019-02-14T16:16:45.379Z,13.10
2019-02-14T16:18:49.150Z,12.90
2019-02-14T16:20:51.249Z,12.80
2019-02-14T16:22:53.026Z,12.60
2019-02-14T16:24:54.905Z,12.50
2019-02-14T16:26:56.690Z,12.30
2019-02-14T16:29:01.052Z,12.10
2019-02-14T16:31:02.209Z,11.90
2019-02-14T16:33:04.015Z,11.70
2019-02-14T16:35:06.050Z,11.60
2019-02-14T16:37:08.209Z,11.40
2019-02-14T16:39:10.173Z,11.30
2019-02-14T16:41:15.093Z,11.20
2019-02-14T16:43:17.013Z,11.10
2019-02-14T16:45:19.049Z,11.00
2019-02-14T16:47:20.996Z,10.90
2019-02-14T16:49:22.717Z,10.90
2019-02-14T16:51:24.450Z,10.80
2019-02-14T16:53:26.237Z,10.80
2019-02-14T16:55:28.047Z,10.80
2019-02-14T16:57:31.426Z,10.80
2019-02-14T16:59:33.189Z,10.70
2019-02-14T17:01:35.285Z,10.60
2019-02-14T17:03:37.049Z,10.50
2019-02-14T17:05:38.814Z,10.50
2019-02-14T17:07:40.636Z,10.50
2019-02-14T17:09:42.353Z,10.50
2019-02-14T17:11:44.096Z,10.40
2019-02-14T17:13:45.971Z,10.40
2019-02-14T17:15:47.701Z,10.30
2019-02-14T17:17:49.553Z,10.30
2019-02-14T17:19:51.458Z,10.20
2019-02-14T17:21:53.203Z,10.20
2019-02-14T17:23:54.961Z,10.10
2019-02-14T17:25:56.841Z,10.00
2019-02-14T17:27:58.576Z,9.90
2019-02-14T17:30:00.349Z,9.90
2019-02-14T17:32:02.282Z,9.80
2019-02-14T17:34:04.129Z,9.80
2019-02-14T17:36:05.893Z,9.80
2019-02-14T17:38:07.662Z,9.70
2019-02-14T17:40:10.617Z,9.70
2019-02-14T17:42:12.381Z,9.70
2019-02-14T17:44:14.116Z,9.70
2019-02-14T17:46:16.009Z,9.70
2019-02-14T17:48:17.898Z,9.60
2019-02-14T17:50:19.982Z,9.60
2019-02-14T17:52:21.875Z,9.50
2019-02-14T17:54:23.625Z,9.50
2019-02-14T17:56:25.397Z,9.40
2019-02-14T17:58:27.149Z,9.40
2019-02-14T18:00:30.081Z,9.40
2019-02-14T18:02:31.870Z,9.30
2019-02-14T18:04:33.629Z,9.30
2019-02-14T18:06:35.345Z,9.30
2019-02-14T18:08:37.089Z,9.30
2019-02-14T18:10:38.854Z,9.30
2019-02-14T18:12:40.579Z,9.20
2019-02-14T18:14:42.302Z,9.20
2019-02-14T18:16:44.187Z,9.20
2019-02-14T18:18:45.913Z,9.20
2019-02-14T18:20:47.659Z,9.20
2019-02-14T18:22:49.384Z,9.10
2019-02-14T18:24:51.165Z,9.10
2019-02-14T18:26:52.896Z,9.00
2019-02-14T18:28:54.954Z,9.00
2019-02-14T18:30:56.670Z,9.00
2019-02-14T18:32:58.496Z,9.00
2019-02-14T18:35:00.357Z,8.90
2019-02-14T18:37:02.274Z,8.80
2019-02-14T18:39:05.851Z,8.80
2019-02-14T18:41:07.584Z,8.80
2019-02-14T18:43:09.346Z,8.80
2019-02-14T18:45:11.894Z,8.70
2019-02-14T18:47:13.642Z,8.70
2019-02-14T18:49:15.403Z,8.70
2019-02-14T18:51:17.225Z,8.70
2019-02-14T18:53:19.005Z,8.70
2019-02-14T18:55:20.946Z,8.70
2019-02-14T18:57:22.854Z,8.60
2019-02-14T18:59:24.593Z,8.60
2019-02-14T19:01:26.400Z,8.60
2019-02-14T19:03:28.284Z,8.60
2019-02-14T19:05:30.077Z,8.50
2019-02-14T19:07:31.794Z,8.50
2019-02-14T19:09:33.541Z,8.40
2019-02-14T19:11:35.508Z,8.40
2019-02-14T19:13:37.254Z,8.40
2019-02-14T19:15:38.967Z,8.40
2019-02-14T19:17:40.747Z,8.40
2019-02-14T19:19:42.684Z,8.30
2019-02-14T19:21:44.465Z,8.30
2019-02-14T19:23:46.358Z,8.30
2019-02-14T19:25:48.314Z,8.20
2019-02-14T19:27:50.113Z,8.10
2019-02-14T19:29:52.001Z,8.10
2019-02-14T19:31:53.722Z,8.10
2019-02-14T19:33:55.470Z,8.10
2019-02-14T19:35:57.382Z,8.10
2019-02-14T19:37:59.109Z,8.00
2019-02-14T19:40:00.884Z,8.00
2019-02-14T19:42:02.956Z,7.90
2019-02-14T19:44:04.727Z,7.90
2019-02-14T19:46:06.553Z,7.90
2019-02-14T19:48:08.305Z,7.90
2019-02-14T19:50:10.105Z,7.80
2019-02-14T19:52:12.060Z,7.80
2019-02-14T19:54:14.001Z,7.80
2019-02-14T19:56:15.789Z,7.80
2019-02-14T19:58:17.971Z,7.80
2019-02-14T20:00:19.935Z,7.70
2019-02-14T20:02:21.690Z,7.80
2019-02-14T20:04:23.444Z,7.70
2019-02-14T20:06:25.350Z,7.70
2019-02-14T20:08:27.080Z,7.70
2019-02-14T20:10:28.966Z,7.70
2019-02-14T20:12:30.949Z,7.70
2019-02-14T20:14:32.717Z,7.60
2019-02-14T20:16:34.506Z,7.50
2019-02-14T20:18:36.271Z,7.50
2019-02-14T20:20:38.024Z,7.50
2019-02-14T20:22:39.800Z,7.50
2019-02-14T20:24:41.891Z,7.50
2019-02-14T20:26:43.689Z,7.50
2019-02-14T20:28:45.421Z,7.40
2019-02-14T20:30:47.350Z,7.40
2019-02-14T20:32:49.105Z,7.30
2019-02-14T20:34:50.993Z,7.30
2019-02-14T20:36:52.881Z,7.30
2019-02-14T20:38:54.608Z,7.30
2019-02-14T20:40:56.328Z,7.20
2019-02-14T20:43:03.097Z,7.20
2019-02-14T20:45:05.235Z,7.20
2019-02-14T20:47:06.945Z,7.10
2019-02-14T20:49:08.957Z,7.10
2019-02-14T20:51:10.789Z,7.10
2019-02-14T20:53:12.634Z,7.10
2019-02-14T20:55:15.425Z,7.10
2019-02-14T20:57:17.134Z,7.10
2019-02-14T20:59:18.842Z,7.10
2019-02-14T21:01:20.689Z,7.10
2019-02-14T21:03:22.504Z,7.20
2019-02-14T21:05:24.576Z,7.20
2019-02-14T21:07:26.368Z,7.20
2019-02-14T21:09:28.073Z,7.20
2019-02-14T21:11:30.140Z,7.20
2019-02-14T21:13:31.881Z,7.20
2019-02-14T21:15:33.692Z,7.20
2019-02-14T21:17:35.421Z,7.20
2019-02-14T21:19:37.357Z,7.30
2019-02-14T21:21:39.185Z,7.20
2019-02-14T21:23:40.993Z,7.30
2019-02-14T21:25:42.848Z,7.20
2019-02-14T21:27:44.727Z,7.10
2019-02-14T21:29:46.821Z,7.10
2019-02-14T21:31:48.673Z,7.10
2019-02-14T21:33:50.383Z,7.10
2019-02-14T21:35:52.089Z,7.10
2019-02-14T21:38:06.246Z,7.10
2019-02-14T21:40:09.912Z,7.00
2019-02-14T21:42:20.921Z,7.00
2019-02-14T21:44:17.703Z,7.00
2019-02-14T21:46:19.414Z,7.00
2019-02-14T21:48:21.157Z,7.00
2019-02-14T21:50:23.121Z,6.90
2019-02-14T21:52:24.841Z,6.90
2019-02-14T21:54:26.961Z,6.90
2019-02-14T21:56:28.829Z,6.90
2019-02-14T21:58:30.762Z,6.90
2019-02-14T22:00:32.573Z,6.80
2019-02-14T22:02:34.391Z,6.80
2019-02-14T22:04:36.328Z,6.80
2019-02-14T22:06:38.125Z,6.70
2019-02-14T22:08:39.967Z,6.70
2019-02-14T22:10:41.825Z,6.70
2019-02-14T22:15:14.716Z,6.70
2019-02-14T22:17:16.557Z,6.70
2019-02-14T22:19:18.309Z,6.70
2019-02-14T22:21:20.017Z,6.60
2019-02-14T22:23:21.898Z,6.60
2019-02-14T22:25:23.594Z,6.60
2019-02-14T22:27:25.321Z,6.60
2019-02-14T22:29:27.242Z,6.60
2019-02-14T22:31:28.941Z,6.60
2019-02-14T22:33:30.738Z,6.60
2019-02-14T22:35:32.453Z,6.50
2019-02-14T22:37:34.185Z,6.50
2019-02-14T22:39:36.098Z,6.50
2019-02-14T22:41:38.842Z,6.50
2019-02-14T22:43:40.645Z,6.50
2019-02-14T22:45:42.603Z,6.40
2019-02-14T22:47:44.324Z,6.40
2019-02-14T22:49:46.032Z,6.40
2019-02-14T22:51:47.748Z,6.40
2019-02-14T22:53:49.485Z,6.40
2019-02-14T22:55:51.192Z,6.40
2019-02-14T22:57:52.889Z,6.40
2019-02-14T22:59:54.943Z,6.40
2019-02-14T23:01:56.851Z,6.20
2019-02-14T23:03:58.651Z,6.20
2019-02-14T23:06:00.477Z,6.30
2019-02-14T23:08:02.398Z,6.20
2019-02-14T23:10:04.356Z,6.30
2019-02-14T23:12:06.317Z,6.30
2019-02-14T23:14:08.027Z,6.30
2019-02-14T23:16:09.729Z,6.20
2019-02-14T23:18:11.457Z,6.10
2019-02-14T23:20:13.273Z,6.10
2019-02-14T23:22:14.979Z,6.20
2019-02-14T23:24:16.752Z,6.20
2019-02-14T23:26:18.465Z,6.20
2019-02-14T23:28:20.198Z,6.00
2019-02-14T23:30:21.888Z,6.00
2019-02-14T23:32:23.693Z,6.00
2019-02-14T23:34:25.430Z,6.10
2019-02-14T23:36:27.322Z,6.10
2019-02-14T23:38:29.020Z,6.10
2019-02-14T23:40:30.852Z,6.10
2019-02-14T23:42:32.904Z,6.00
2019-02-14T23:44:34.680Z,6.00
2019-02-14T23:46:36.597Z,6.00
2019-02-14T23:48:38.305Z,5.90
2019-02-14T23:50:40.021Z,5.80
2019-02-14T23:52:41.723Z,5.80
2019-02-14T23:54:43.428Z,5.90
2019-02-14T23:56:45.148Z,5.90
2019-02-14T23:58:47.191Z,5.90
